Kings Point — WDH9083 — position and weather

sailwx.info

Track history (hours):
 
Tides and Currents Weather Stations Pressure Air Temp Water Temp Dewpoint Dewpoint Depression Visibility Wind Speed Wind Dir Waves Ship Positions

Kings Point

Owner: Vane Line Bunkering, Inc., Philadelphia, PA. More information available from US FCC via Universal Licensing System and Coast Guard Vessel Documentation Center.

Last reported at 2017-Dec-18 01:00 UTC. Time now 2017-Dec-18 01:24 UTC.
Position N 40°39' W 074°08'.

Length 33 m; draft 3 m.

Type: Tug. MMSI: 338329000.

Date/timePositionNaut miles runAvg speedWind from/ knotsBaromVisibWave heightAir tempDewpointWater temp
2017-Dec-18 01:00N 40°39' W 074°08'3 5.8
2017-Dec-18 00:30N 40°40' W 074°05'0 0.0
2017-Dec-18 00:00N 40°40' W 074°05'0 0.0
2017-Dec-17 23:30N 40°40' W 074°05'0 0.0
2017-Dec-17 23:00N 40°40' W 074°05'0 0.0
2017-Dec-17 22:30N 40°40' W 074°05'0 0.0
2017-Dec-17 22:00N 40°40' W 074°05'0 0.0
2017-Dec-17 21:30N 40°40' W 074°05'2 3.9
2017-Dec-17 21:00N 40°39' W 074°07'0 0.3
2017-Dec-17 20:30N 40°39' W 074°07'0 0.8
2017-Dec-17 20:00N 40°39' W 074°06'1 1.1
2017-Dec-17 19:30N 40°39' W 074°07'0 0.1
2017-Dec-17 19:00N 40°39' W 074°07'1 2.7
2017-Dec-17 18:30N 40°39' W 074°05'3 5.8
2017-Dec-17 18:00N 40°41' W 074°02'2 3.4
2017-Dec-17 17:30N 40°41' W 074°00'1 2.8
2017-Dec-17 17:00N 40°40' W 074°01'0 0.0
2017-Dec-17 16:30N 40°40' W 074°01'0 0.0
2017-Dec-17 16:00N 40°40' W 074°01'0 0.0
2017-Dec-17 15:30N 40°40' W 074°01'0 0.6
2017-Dec-17 15:00N 40°40' W 074°00'3 5.7
2017-Dec-17 14:30N 40°39' W 074°04'2 3.2
2017-Dec-17 14:00N 40°39' W 074°06'0 0.0
2017-Dec-17 13:30N 40°39' W 074°06'0 0.1
2017-Dec-17 13:00N 40°39' W 074°06'0 0.5
2017-Dec-17 12:30N 40°39' W 074°06'3 5.4
2017-Dec-17 12:00N 40°40' W 074°03'1 1.2
2017-Dec-17 11:31N 40°40' W 074°03'3 5.4
2017-Dec-17 11:00N 40°37' W 074°03'0 0.3
2017-Dec-17 10:30N 40°37' W 074°03'1 1.0
2017-Dec-17 10:00N 40°37' W 074°03'2 4.0
2017-Dec-17 09:30N 40°39' W 074°02'1 2.7
2017-Dec-17 09:00N 40°40' W 074°01'0 0.4
2017-Dec-17 08:31N 40°40' W 074°01'2 3.5
2017-Dec-17 08:00N 40°40' W 074°03'1 2.0
2017-Dec-17 07:30N 40°39' W 074°03'3 5.0
2017-Dec-17 07:00N 40°39' W 074°07'0 0.0
2017-Dec-17 06:30N 40°39' W 074°07'0 0.9
2017-Dec-17 06:00N 40°39' W 074°06'3 6.0
2017-Dec-17 05:31N 40°40' W 074°03'1 2.2
2017-Dec-17 05:00N 40°40' W 074°04'1 1.7
2017-Dec-17 04:30N 40°40' W 074°05'0 0.0
2017-Dec-17 04:00N 40°40' W 074°05'0 0.0
2017-Dec-17 03:30N 40°40' W 074°05'0 0.0
2017-Dec-17 03:00N 40°40' W 074°05'0 0.0
2017-Dec-17 02:30N 40°40' W 074°05'0 0.0
2017-Dec-17 02:00N 40°40' W 074°05'0 0.0
2017-Dec-17 01:30N 40°40' W 074°05'0 0.0
2017-Dec-17 01:00N 40°40' W 074°05'0 0.0
2017-Dec-17 00:31N 40°40' W 074°05'1 2.4
2017-Dec-17 00:00N 40°39' W 074°05'2 4.1
2017-Dec-16 23:30N 40°39' W 074°03'2 4.1
2017-Dec-16 23:00N 40°40' W 074°01'0 0.5
2017-Dec-16 22:30N 40°40' W 074°00'0 0.0
2017-Dec-16 22:00N 40°40' W 074°00'0 0.0
2017-Dec-16 21:30N 40°40' W 074°00'0 0.0
2017-Dec-16 21:00N 40°40' W 074°00'0 0.0
2017-Dec-16 20:30N 40°40' W 074°00'0 0.0
2017-Dec-16 20:00N 40°40' W 074°00'0 0.5
2017-Dec-16 19:30N 40°40' W 074°00'2 3.9
2017-Dec-16 19:00N 40°40' W 074°03'2 4.4
2017-Dec-16 18:30N 40°39' W 074°05'3 5.7
2017-Dec-16 18:00N 40°39' W 074°09'2 4.2
2017-Dec-16 17:30N 40°41' W 074°08'0 0.7
2017-Dec-16 17:00N 40°41' W 074°08'0 0.0
2017-Dec-16 16:30N 40°41' W 074°08'0 0.0
2017-Dec-16 16:00N 40°41' W 074°08'0 0.0
2017-Dec-16 15:30N 40°41' W 074°08'0 0.2
2017-Dec-16 15:00N 40°42' W 074°08'0 0.2
2017-Dec-16 14:30N 40°41' W 074°08'0 0.0
2017-Dec-16 14:00N 40°41' W 074°08'0 0.0
2017-Dec-16 13:30N 40°41' W 074°08'0 0.0
2017-Dec-16 13:00N 40°41' W 074°08'0 0.0
2017-Dec-16 12:30N 40°41' W 074°08'0 0.0
2017-Dec-16 12:00N 40°41' W 074°08'0 0.2
2017-Dec-16 11:29N 40°41' W 074°08'0 0.0
2017-Dec-16 11:00N 40°41' W 074°08'2 3.6
2017-Dec-16 10:30N 40°40' W 074°09'2 3.3
2017-Dec-16 10:00N 40°39' W 074°07'0 0.2
2017-Dec-16 09:30N 40°39' W 074°07'0 0.0
2017-Dec-16 09:00N 40°39' W 074°07'0 0.0
2017-Dec-16 08:30N 40°39' W 074°07'0 0.7
2017-Dec-16 08:00N 40°39' W 074°06'0 0.6
2017-Dec-16 07:30N 40°39' W 074°06'0 0.0
2017-Dec-16 07:00N 40°39' W 074°06'0 0.0
2017-Dec-16 06:30N 40°39' W 074°06'0 0.0
2017-Dec-16 06:00N 40°39' W 074°06'0 0.0
2017-Dec-16 05:30N 40°39' W 074°06'0 0.0
2017-Dec-16 05:00N 40°39' W 074°06'0 0.0
2017-Dec-16 04:30N 40°39' W 074°06'0 0.0
2017-Dec-16 04:00N 40°39' W 074°06'0 0.0
2017-Dec-16 03:30N 40°39' W 074°06'0 0.0
2017-Dec-16 02:59N 40°39' W 074°06'3 7.2
2017-Dec-16 02:30N 40°39' W 074°01'1 2.2
2017-Dec-16 02:00N 40°40' W 074°00'1 1.8
2017-Dec-16 01:30N 40°40' W 074°01'1 2.8
2017-Dec-16 01:01N 40°42' W 074°00'1 2.9
2017-Dec-16 00:30N 40°40' W 074°00'2 3.1
2017-Dec-16 00:00N 40°39' W 074°02'4 7.1
2017-Dec-15 23:30N 40°39' W 074°07'1 2.8
2017-Dec-15 23:00N 40°39' W 074°05'3 7.0
2017-Dec-15 22:30N 40°41' W 074°01'1 1.4
2017-Dec-15 22:00N 40°41' W 074°00'0 0.0
2017-Dec-15 21:30N 40°41' W 074°00'0 0.0
2017-Dec-15 21:00N 40°41' W 074°00'0 0.0
2017-Dec-15 20:30N 40°41' W 074°00'0 0.0
2017-Dec-15 20:00N 40°41' W 074°00'1 1.7
2017-Dec-15 19:30N 40°41' W 074°01'2 3.0
2017-Dec-15 19:00N 40°40' W 074°03'3 5.5
2017-Dec-15 18:30N 40°42' W 074°00'4 7.7
2017-Dec-15 18:00N 40°45' W 073°58'4 7.9
2017-Dec-15 17:30N 40°48' W 073°54'4 7.7
2017-Dec-15 17:00N 40°48' W 073°49'3 5.5
2017-Dec-15 16:29N 40°50' W 073°46'0 0.0
2017-Dec-14 09:48N 40°50' W 073°47'2 5.1
2017-Dec-14 09:28N 40°48' W 073°47'0 0.0
2017-Dec-14 09:00N 40°48' W 073°47'0 0.0
2017-Dec-14 08:28N 40°48' W 073°47'0 0.0
2017-Dec-14 06:46N 40°48' W 073°47'0 0.1
2017-Dec-14 06:29N 40°48' W 073°47'0 0.0
2017-Dec-14 06:00N 40°48' W 073°47'0 0.0
2017-Dec-14 05:30N 40°48' W 073°47'0 0.1
2017-Dec-14 04:28N 40°48' W 073°47'0 0.0
2017-Dec-14 04:00N 40°48' W 073°47'0 0.0
2017-Dec-14 03:13N 40°48' W 073°47'0 0.1
2017-Dec-14 02:51N 40°48' W 073°47'0 0.0
2017-Dec-14 01:55N 40°48' W 073°47'0 0.0
2017-Dec-14 01:21N 40°48' W 073°47'0 0.0
2017-Dec-14 01:00N 40°48' W 073°47'0 0.0
2017-Dec-14 00:30N 40°48' W 073°47'0 0.0
2017-Dec-14 00:00N 40°48' W 073°47'0 0.0
2017-Dec-13 23:29N 40°48' W 073°47'0 0.0
2017-Dec-13 22:49N 40°48' W 073°47'0 0.0
2017-Dec-13 22:29N 40°48' W 073°47'0 0.0
2017-Dec-13 21:59N 40°48' W 073°47'0 0.0
2017-Dec-13 21:12N 40°48' W 073°47'0 0.0
2017-Dec-13 20:41N 40°48' W 073°47'0 0.0
2017-Dec-13 20:27N 40°48' W 073°47'0 0.0
2017-Dec-13 19:59N 40°48' W 073°47'0 0.0
2017-Dec-13 18:55N 40°48' W 073°47'2 3.5
2017-Dec-13 18:24N 40°48' W 073°49'3 8.4
2017-Dec-13 18:00N 40°48' W 073°54'4 6.8
2017-Dec-13 17:29N 40°46' W 073°57'3 6.3
2017-Dec-13 17:00N 40°43' W 073°58'3 6.0
2017-Dec-13 16:30N 40°41' W 074°01'3 5.0
2017-Dec-13 16:00N 40°40' W 074°04'0 0.0
2017-Dec-13 15:30N 40°40' W 074°04'0 0.0
2017-Dec-13 15:00N 40°40' W 074°04'0 0.0
2017-Dec-13 14:30N 40°40' W 074°04'1 2.1
2017-Dec-13 14:00N 40°40' W 074°03'2 4.2
2017-Dec-13 13:30N 40°40' W 074°00'0 0.0
2017-Dec-13 13:00N 40°40' W 074°00'1 2.9
2017-Dec-13 12:30N 40°39' W 074°02'5 9.4
2017-Dec-13 12:00N 40°39' W 074°08'1 2.7
2017-Dec-13 11:30N 40°40' W 074°09'0 0.0
2017-Dec-13 11:00N 40°40' W 074°09'2 3.1
2017-Dec-13 10:30N 40°39' W 074°07'1 2.8
2017-Dec-13 10:00N 40°39' W 074°05'0 0.8
2017-Dec-13 09:29N 40°39' W 074°06'3 7.2
2017-Dec-13 09:01N 40°39' W 074°02'2 3.7
2017-Dec-13 08:30N 40°39' W 074°04'1 2.9
2017-Dec-13 08:00N 40°39' W 074°06'0 0.0
2017-Dec-13 07:30N 40°39' W 074°06'0 0.0
2017-Dec-13 07:00N 40°39' W 074°06'0 0.0
2017-Dec-13 06:30N 40°39' W 074°06'3 5.3
2017-Dec-13 06:00N 40°39' W 074°09'2 4.6
2017-Dec-13 05:30N 40°38' W 074°12'0 0.0
2017-Dec-13 05:00N 40°38' W 074°12'0 0.0
2017-Dec-13 04:30N 40°38' W 074°12'0 0.6
2017-Dec-13 04:00N 40°38' W 074°12'0 0.8
2017-Dec-13 03:30N 40°38' W 074°12'0 0.0
2017-Dec-13 02:59N 40°38' W 074°12'0 0.0
2017-Dec-13 02:30N 40°38' W 074°12'0 0.0
2017-Dec-13 02:00N 40°38' W 074°12'0 0.0
2017-Dec-13 01:30N 40°38' W 074°12'0 0.0
2017-Dec-13 01:00N 40°38' W 074°12'0 0.1
2017-Dec-13 00:30N 40°38' W 074°12'1 1.3
2017-Dec-13 00:00N 40°38' W 074°12'0 0.0
2017-Dec-12 23:29N 40°38' W 074°12'0 0.0
2017-Dec-12 22:58N 40°38' W 074°12'5 7.6
2017-Dec-12 22:22N 40°33' W 074°14'1 3.4
2017-Dec-12 21:59N 40°32' W 074°15'1 2.1
2017-Dec-12 21:21N 40°33' W 074°14'2 4.5
2017-Dec-12 20:49N 40°35' W 074°12'2 6.0
2017-Dec-12 20:30N 40°37' W 074°12'2 4.9
2017-Dec-12 20:00N 40°39' W 074°10'3 6.4
2017-Dec-12 19:30N 40°39' W 074°05'4 8.4
2017-Dec-12 19:00N 40°41' W 074°01'1 2.0
2017-Dec-12 18:30N 40°40' W 074°01'1 1.7
2017-Dec-12 18:00N 40°40' W 074°00'0 0.0
2017-Dec-12 17:30N 40°40' W 074°00'2 4.5
2017-Dec-12 17:00N 40°39' W 074°03'5 9.0
2017-Dec-12 16:30N 40°39' W 074°09'3 5.8
2017-Dec-12 16:00N 40°41' W 074°09'0 0.0
2017-Dec-12 15:30N 40°41' W 074°09'0 0.0
2017-Dec-12 14:59N 40°41' W 074°09'0 0.0
2017-Dec-12 14:30N 40°41' W 074°09'0 0.0
2017-Dec-12 14:00N 40°41' W 074°09'0 0.0
2017-Dec-12 13:30N 40°41' W 074°09'0 0.0
2017-Dec-12 13:00N 40°41' W 074°09'0 0.0
2017-Dec-12 12:30N 40°41' W 074°09'0 0.0
2017-Dec-12 12:00N 40°41' W 074°09'0 0.0
2017-Dec-12 11:29N 40°41' W 074°09'0 0.0
2017-Dec-12 11:00N 40°41' W 074°09'0 0.0
2017-Dec-12 10:30N 40°41' W 074°09'0 0.0
2017-Dec-12 10:00N 40°41' W 074°09'3 5.7
2017-Dec-12 09:30N 40°39' W 074°08'4 8.7
2017-Dec-12 09:00N 40°40' W 074°03'2 4.6
2017-Dec-12 08:30N 40°41' W 074°00'0 0.0
2017-Dec-12 08:00N 40°41' W 074°00'0 1.0
2017-Dec-12 07:30N 40°42' W 074°00'3 6.3
2017-Dec-12 07:00N 40°45' W 073°58'3 6.0
2017-Dec-12 06:30N 40°47' W 073°55'3 6.6
2017-Dec-12 06:00N 40°48' W 073°51'3 6.9
2017-Dec-12 05:30N 40°49' W 073°47'4 8.5
2017-Dec-12 05:00N 40°53' W 073°44'4 0.3
2017-Dec-11 13:56N 40°49' W 073°47'0 1.0
2017-Dec-11 13:29N 40°49' W 073°46'0 0.0
2017-Dec-11 12:57N 40°49' W 073°46'0 0.0
2017-Dec-11 11:08N 40°49' W 073°46'0 0.1
2017-Dec-11 10:46N 40°49' W 073°46'0 0.1
2017-Dec-11 10:19N 40°49' W 073°46'2 5.7
2017-Dec-11 09:58N 40°48' W 073°49'4 7.8
2017-Dec-11 09:30N 40°48' W 073°54'3 6.9
2017-Dec-11 09:00N 40°46' W 073°57'3 5.7
2017-Dec-11 08:30N 40°43' W 073°58'3 5.4
2017-Dec-11 08:00N 40°41' W 074°01'4 7.2
2017-Dec-11 07:30N 40°39' W 074°04'4 7.3
2017-Dec-11 07:00N 40°39' W 074°09'2 4.9
2017-Dec-11 06:30N 40°38' W 074°12'0 0.3
2017-Dec-11 06:00N 40°38' W 074°12'0 0.0
2017-Dec-11 05:30N 40°38' W 074°12'0 0.0
2017-Dec-11 05:00N 40°38' W 074°12'0 0.0
2017-Dec-11 04:30N 40°38' W 074°12'0 0.0
2017-Dec-11 03:59N 40°38' W 074°12'0 0.0
2017-Dec-11 03:30N 40°38' W 074°12'0 0.0
2017-Dec-11 03:00N 40°38' W 074°12'0 0.0
2017-Dec-11 02:30N 40°38' W 074°12'1 2.4
2017-Dec-11 01:59N 40°39' W 074°11'5 9.5
2017-Dec-11 01:30N 40°39' W 074°05'4 7.4
2017-Dec-11 01:00N 40°40' W 074°00'2 3.4
2017-Dec-11 00:30N 40°39' W 074°02'2 4.9
2017-Dec-11 00:00N 40°39' W 074°05'1 1.8
2017-Dec-10 23:30N 40°40' W 074°05'0 0.0
2017-Dec-10 23:00N 40°40' W 074°05'0 0.0
2017-Dec-10 22:30N 40°40' W 074°05'0 0.0
2017-Dec-10 22:00N 40°40' W 074°05'0 0.0
2017-Dec-10 21:30N 40°40' W 074°05'2 3.7
2017-Dec-10 21:01N 40°40' W 074°03'2 4.0
2017-Dec-10 20:30N 40°40' W 074°00'0 0.0
2017-Dec-10 20:00N 40°40' W 074°00'0 0.0
2017-Dec-10 19:30N 40°40' W 074°00'0 0.0
2017-Dec-10 19:00N 40°40' W 074°00'0 0.0
2017-Dec-10 18:30N 40°40' W 074°00'0 0.0
2017-Dec-10 18:00N 40°40' W 074°00'0 0.0
2017-Dec-10 17:30N 40°40' W 074°00'0 0.0
2017-Dec-10 17:00N 40°40' W 074°00'3 6.0
2017-Dec-10 16:30N 40°39' W 074°04'4 8.6
2017-Dec-10 16:00N 40°39' W 074°09'2 4.9
2017-Dec-10 15:30N 40°38' W 074°12'2 3.2
2017-Dec-10 15:00N 40°39' W 074°11'4 8.8
2017-Dec-10 14:30N 40°39' W 074°05'4 8.7
2017-Dec-10 14:00N 40°42' W 074°00'4 8.8
2017-Dec-10 13:30N 40°45' W 073°57'4 8.7
2017-Dec-10 13:00N 40°48' W 073°53'4 8.7
2017-Dec-10 12:30N 40°48' W 073°47'5 8.4
2017-Dec-10 11:58N 40°52' W 073°44'1 0.0
2017-Dec-09 20:51N 40°52' W 073°45'3 7.8
2017-Dec-09 20:28N 40°49' W 073°47'2 5.1
2017-Dec-09 19:59N 40°48' W 073°50'4 7.2
2017-Dec-09 19:30N 40°48' W 073°54'4 7.7
2017-Dec-09 19:00N 40°45' W 073°58'3 6.4
2017-Dec-09 18:30N 40°42' W 073°60'4 7.7
2017-Dec-09 18:00N 40°39' W 074°03'2 4.9
2017-Dec-09 17:30N 40°39' W 074°07'1 1.1
2017-Dec-09 17:00N 40°39' W 074°06'0 0.0
2017-Dec-09 16:30N 40°39' W 074°06'0 0.0
2017-Dec-09 16:00N 40°39' W 074°06'0 0.0
2017-Dec-09 15:30N 40°39' W 074°06'0 0.0
2017-Dec-09 15:00N 40°39' W 074°06'1 1.8
2017-Dec-09 14:30N 40°39' W 074°07'2 4.6
2017-Dec-09 14:00N 40°41' W 074°09'0 0.0
2017-Dec-09 13:30N 40°41' W 074°09'0 0.1
2017-Dec-09 12:59N 40°41' W 074°09'1 2.8
2017-Dec-09 12:30N 40°39' W 074°09'3 5.4
2017-Dec-09 12:00N 40°39' W 074°05'0 0.5
2017-Dec-09 11:30N 40°39' W 074°05'0 0.0
2017-Dec-09 11:00N 40°39' W 074°05'0 0.0
2017-Dec-09 10:30N 40°39' W 074°05'2 3.3
2017-Dec-09 10:00N 40°39' W 074°03'2 3.7
2017-Dec-09 09:30N 40°40' W 074°01'3 5.8
2017-Dec-09 09:00N 40°38' W 074°04'3 5.2
2017-Dec-09 08:30N 40°40' W 074°05'0 0.0
2017-Dec-09 08:00N 40°40' W 074°05'0 0.0
2017-Dec-09 07:30N 40°40' W 074°05'3 5.4
2017-Dec-09 07:00N 40°39' W 074°02'2 3.6
2017-Dec-09 06:30N 40°40' W 074°00'2 3.5
2017-Dec-09 06:00N 40°39' W 074°02'3 6.9
2017-Dec-09 05:30N 40°39' W 074°07'2 3.5
2017-Dec-09 05:00N 40°39' W 074°04'1 1.4
2017-Dec-09 04:30N 40°40' W 074°04'0 0.0
2017-Dec-09 04:00N 40°40' W 074°04'0 0.0
2017-Dec-09 03:30N 40°40' W 074°04'0 0.0
2017-Dec-09 03:00N 40°40' W 074°04'0 0.0
2017-Dec-09 02:30N 40°40' W 074°04'0 0.0
2017-Dec-09 02:00N 40°40' W 074°04'0 0.0
2017-Dec-09 01:30N 40°40' W 074°04'0 0.0
2017-Dec-09 01:00N 40°40' W 074°04'0 0.0
2017-Dec-09 00:30N 40°40' W 074°04'0 0.0
2017-Dec-09 00:00N 40°40' W 074°04'0 0.0
2017-Dec-08 23:30N 40°40' W 074°04'2 5.0
2017-Dec-08 23:00N 40°41' W 074°01'5 9.4
2017-Dec-08 22:30N 40°45' W 073°58'5 9.3
2017-Dec-08 22:00N 40°48' W 073°53'4 7.9
2017-Dec-08 21:30N 40°48' W 073°48'3 6.3
2017-Dec-08 20:58N 40°51' W 073°46'2 0.2
2017-Dec-08 10:11N 40°49' W 073°47'1 3.7
2017-Dec-08 10:00N 40°49' W 073°46'0 0.1
2017-Dec-08 09:23N 40°49' W 073°46'0 0.0
2017-Dec-08 09:00N 40°49' W 073°46'0 0.0
2017-Dec-08 08:29N 40°49' W 073°46'0 0.0
2017-Dec-08 07:46N 40°49' W 073°46'0 0.0
2017-Dec-08 07:28N 40°49' W 073°46'0 0.1
2017-Dec-08 06:58N 40°49' W 073°46'0 0.1
2017-Dec-08 06:17N 40°49' W 073°46'0 0.1
2017-Dec-08 05:59N 40°49' W 073°46'0 0.1
2017-Dec-08 05:23N 40°49' W 073°46'0 0.0
2017-Dec-08 04:59N 40°49' W 073°46'0 0.0
2017-Dec-08 02:19N 40°49' W 073°46'0 0.1
2017-Dec-08 01:49N 40°49' W 073°47'1 2.7
2017-Dec-08 01:27N 40°48' W 073°47'  
Track history (hours):
 
Tides and Currents Weather Stations Pressure Air Temp Water Temp Dewpoint Dewpoint Depression Visibility Wind Speed Wind Dir Waves Ship Positions

Kings Point

Owner: Vane Line Bunkering, Inc., Philadelphia, PA. More information available from US FCC via Universal Licensing System and Coast Guard Vessel Documentation Center.

Last reported at 2017-Dec-18 01:00 UTC. Time now 2017-Dec-18 01:24 UTC.
Position N 40°39' W 074°08'.

Length 33 m; draft 3 m.

Type: Tug. MMSI: 338329000.

Date/timePositionNaut miles runAvg speedWind from/ knotsBaromVisibWave heightAir tempDewpointWater temp
2017-Dec-18 01:00N 40°39' W 074°08'3 5.8
2017-Dec-18 00:30N 40°40' W 074°05'0 0.0
2017-Dec-18 00:00N 40°40' W 074°05'0 0.0
2017-Dec-17 23:30N 40°40' W 074°05'0 0.0
2017-Dec-17 23:00N 40°40' W 074°05'0 0.0
2017-Dec-17 22:30N 40°40' W 074°05'0 0.0
2017-Dec-17 22:00N 40°40' W 074°05'0 0.0
2017-Dec-17 21:30N 40°40' W 074°05'2 3.9
2017-Dec-17 21:00N 40°39' W 074°07'0 0.3
2017-Dec-17 20:30N 40°39' W 074°07'0 0.8
2017-Dec-17 20:00N 40°39' W 074°06'1 1.1
2017-Dec-17 19:30N 40°39' W 074°07'0 0.1
2017-Dec-17 19:00N 40°39' W 074°07'1 2.7
2017-Dec-17 18:30N 40°39' W 074°05'3 5.8
2017-Dec-17 18:00N 40°41' W 074°02'2 3.4
2017-Dec-17 17:30N 40°41' W 074°00'1 2.8
2017-Dec-17 17:00N 40°40' W 074°01'0 0.0
2017-Dec-17 16:30N 40°40' W 074°01'0 0.0
2017-Dec-17 16:00N 40°40' W 074°01'0 0.0
2017-Dec-17 15:30N 40°40' W 074°01'0 0.6
2017-Dec-17 15:00N 40°40' W 074°00'3 5.7
2017-Dec-17 14:30N 40°39' W 074°04'2 3.2
2017-Dec-17 14:00N 40°39' W 074°06'0 0.0
2017-Dec-17 13:30N 40°39' W 074°06'0 0.1
2017-Dec-17 13:00N 40°39' W 074°06'0 0.5
2017-Dec-17 12:30N 40°39' W 074°06'3 5.4
2017-Dec-17 12:00N 40°40' W 074°03'1 1.2
2017-Dec-17 11:31N 40°40' W 074°03'3 5.4
2017-Dec-17 11:00N 40°37' W 074°03'0 0.3
2017-Dec-17 10:30N 40°37' W 074°03'1 1.0
2017-Dec-17 10:00N 40°37' W 074°03'2 4.0
2017-Dec-17 09:30N 40°39' W 074°02'1 2.7
2017-Dec-17 09:00N 40°40' W 074°01'0 0.4
2017-Dec-17 08:31N 40°40' W 074°01'2 3.5
2017-Dec-17 08:00N 40°40' W 074°03'1 2.0
2017-Dec-17 07:30N 40°39' W 074°03'3 5.0
2017-Dec-17 07:00N 40°39' W 074°07'0 0.0
2017-Dec-17 06:30N 40°39' W 074°07'0 0.9
2017-Dec-17 06:00N 40°39' W 074°06'3 6.0
2017-Dec-17 05:31N 40°40' W 074°03'1 2.2
2017-Dec-17 05:00N 40°40' W 074°04'1 1.7
2017-Dec-17 04:30N 40°40' W 074°05'0 0.0
2017-Dec-17 04:00N 40°40' W 074°05'0 0.0
2017-Dec-17 03:30N 40°40' W 074°05'0 0.0
2017-Dec-17 03:00N 40°40' W 074°05'0 0.0
2017-Dec-17 02:30N 40°40' W 074°05'0 0.0
2017-Dec-17 02:00N 40°40' W 074°05'0 0.0
2017-Dec-17 01:30N 40°40' W 074°05'0 0.0
2017-Dec-17 01:00N 40°40' W 074°05'0 0.0
2017-Dec-17 00:31N 40°40' W 074°05'1 2.4
2017-Dec-17 00:00N 40°39' W 074°05'2 4.1
2017-Dec-16 23:30N 40°39' W 074°03'2 4.1
2017-Dec-16 23:00N 40°40' W 074°01'0 0.5
2017-Dec-16 22:30N 40°40' W 074°00'0 0.0
2017-Dec-16 22:00N 40°40' W 074°00'0 0.0
2017-Dec-16 21:30N 40°40' W 074°00'0 0.0
2017-Dec-16 21:00N 40°40' W 074°00'0 0.0
2017-Dec-16 20:30N 40°40' W 074°00'0 0.0
2017-Dec-16 20:00N 40°40' W 074°00'0 0.5
2017-Dec-16 19:30N 40°40' W 074°00'2 3.9
2017-Dec-16 19:00N 40°40' W 074°03'2 4.4
2017-Dec-16 18:30N 40°39' W 074°05'3 5.7
2017-Dec-16 18:00N 40°39' W 074°09'2 4.2
2017-Dec-16 17:30N 40°41' W 074°08'0 0.7
2017-Dec-16 17:00N 40°41' W 074°08'0 0.0
2017-Dec-16 16:30N 40°41' W 074°08'0 0.0
2017-Dec-16 16:00N 40°41' W 074°08'0 0.0
2017-Dec-16 15:30N 40°41' W 074°08'0 0.2
2017-Dec-16 15:00N 40°42' W 074°08'0 0.2
2017-Dec-16 14:30N 40°41' W 074°08'0 0.0
2017-Dec-16 14:00N 40°41' W 074°08'0 0.0
2017-Dec-16 13:30N 40°41' W 074°08'0 0.0
2017-Dec-16 13:00N 40°41' W 074°08'0 0.0
2017-Dec-16 12:30N 40°41' W 074°08'0 0.0
2017-Dec-16 12:00N 40°41' W 074°08'0 0.2
2017-Dec-16 11:29N 40°41' W 074°08'0 0.0
2017-Dec-16 11:00N 40°41' W 074°08'2 3.6
2017-Dec-16 10:30N 40°40' W 074°09'2 3.3
2017-Dec-16 10:00N 40°39' W 074°07'0 0.2
2017-Dec-16 09:30N 40°39' W 074°07'0 0.0
2017-Dec-16 09:00N 40°39' W 074°07'0 0.0
2017-Dec-16 08:30N 40°39' W 074°07'0 0.7
2017-Dec-16 08:00N 40°39' W 074°06'0 0.6
2017-Dec-16 07:30N 40°39' W 074°06'0 0.0
2017-Dec-16 07:00N 40°39' W 074°06'0 0.0
2017-Dec-16 06:30N 40°39' W 074°06'0 0.0
2017-Dec-16 06:00N 40°39' W 074°06'0 0.0
2017-Dec-16 05:30N 40°39' W 074°06'0 0.0
2017-Dec-16 05:00N 40°39' W 074°06'0 0.0
2017-Dec-16 04:30N 40°39' W 074°06'0 0.0
2017-Dec-16 04:00N 40°39' W 074°06'0 0.0
2017-Dec-16 03:30N 40°39' W 074°06'0 0.0
2017-Dec-16 02:59N 40°39' W 074°06'3 7.2
2017-Dec-16 02:30N 40°39' W 074°01'1 2.2
2017-Dec-16 02:00N 40°40' W 074°00'1 1.8
2017-Dec-16 01:30N 40°40' W 074°01'1 2.8
2017-Dec-16 01:01N 40°42' W 074°00'1 2.9
2017-Dec-16 00:30N 40°40' W 074°00'2 3.1
2017-Dec-16 00:00N 40°39' W 074°02'4 7.1
2017-Dec-15 23:30N 40°39' W 074°07'1 2.8
2017-Dec-15 23:00N 40°39' W 074°05'3 7.0
2017-Dec-15 22:30N 40°41' W 074°01'1 1.4
2017-Dec-15 22:00N 40°41' W 074°00'0 0.0
2017-Dec-15 21:30N 40°41' W 074°00'0 0.0
2017-Dec-15 21:00N 40°41' W 074°00'0 0.0
2017-Dec-15 20:30N 40°41' W 074°00'0 0.0
2017-Dec-15 20:00N 40°41' W 074°00'1 1.7
2017-Dec-15 19:30N 40°41' W 074°01'2 3.0
2017-Dec-15 19:00N 40°40' W 074°03'3 5.5
2017-Dec-15 18:30N 40°42' W 074°00'4 7.7
2017-Dec-15 18:00N 40°45' W 073°58'4 7.9
2017-Dec-15 17:30N 40°48' W 073°54'4 7.7
2017-Dec-15 17:00N 40°48' W 073°49'3 5.5
2017-Dec-15 16:29N 40°50' W 073°46'0 0.0
2017-Dec-14 09:48N 40°50' W 073°47'2 5.1
2017-Dec-14 09:28N 40°48' W 073°47'0 0.0
2017-Dec-14 09:00N 40°48' W 073°47'0 0.0
2017-Dec-14 08:28N 40°48' W 073°47'0 0.0
2017-Dec-14 06:46N 40°48' W 073°47'0 0.1
2017-Dec-14 06:29N 40°48' W 073°47'0 0.0
2017-Dec-14 06:00N 40°48' W 073°47'0 0.0
2017-Dec-14 05:30N 40°48' W 073°47'0 0.1
2017-Dec-14 04:28N 40°48' W 073°47'0 0.0
2017-Dec-14 04:00N 40°48' W 073°47'0 0.0
2017-Dec-14 03:13N 40°48' W 073°47'0 0.1
2017-Dec-14 02:51N 40°48' W 073°47'0 0.0
2017-Dec-14 01:55N 40°48' W 073°47'0 0.0
2017-Dec-14 01:21N 40°48' W 073°47'0 0.0
2017-Dec-14 01:00N 40°48' W 073°47'0 0.0
2017-Dec-14 00:30N 40°48' W 073°47'0 0.0
2017-Dec-14 00:00N 40°48' W 073°47'0 0.0
2017-Dec-13 23:29N 40°48' W 073°47'0 0.0
2017-Dec-13 22:49N 40°48' W 073°47'0 0.0
2017-Dec-13 22:29N 40°48' W 073°47'0 0.0
2017-Dec-13 21:59N 40°48' W 073°47'0 0.0
2017-Dec-13 21:12N 40°48' W 073°47'0 0.0
2017-Dec-13 20:41N 40°48' W 073°47'0 0.0
2017-Dec-13 20:27N 40°48' W 073°47'0 0.0
2017-Dec-13 19:59N 40°48' W 073°47'0 0.0
2017-Dec-13 18:55N 40°48' W 073°47'2 3.5
2017-Dec-13 18:24N 40°48' W 073°49'3 8.4
2017-Dec-13 18:00N 40°48' W 073°54'4 6.8
2017-Dec-13 17:29N 40°46' W 073°57'3 6.3
2017-Dec-13 17:00N 40°43' W 073°58'3 6.0
2017-Dec-13 16:30N 40°41' W 074°01'3 5.0
2017-Dec-13 16:00N 40°40' W 074°04'0 0.0
2017-Dec-13 15:30N 40°40' W 074°04'0 0.0
2017-Dec-13 15:00N 40°40' W 074°04'0 0.0
2017-Dec-13 14:30N 40°40' W 074°04'1 2.1
2017-Dec-13 14:00N 40°40' W 074°03'2 4.2
2017-Dec-13 13:30N 40°40' W 074°00'0 0.0
2017-Dec-13 13:00N 40°40' W 074°00'1 2.9
2017-Dec-13 12:30N 40°39' W 074°02'5 9.4
2017-Dec-13 12:00N 40°39' W 074°08'1 2.7
2017-Dec-13 11:30N 40°40' W 074°09'0 0.0
2017-Dec-13 11:00N 40°40' W 074°09'2 3.1
2017-Dec-13 10:30N 40°39' W 074°07'1 2.8
2017-Dec-13 10:00N 40°39' W 074°05'0 0.8
2017-Dec-13 09:29N 40°39' W 074°06'3 7.2
2017-Dec-13 09:01N 40°39' W 074°02'2 3.7
2017-Dec-13 08:30N 40°39' W 074°04'1 2.9
2017-Dec-13 08:00N 40°39' W 074°06'0 0.0
2017-Dec-13 07:30N 40°39' W 074°06'0 0.0
2017-Dec-13 07:00N 40°39' W 074°06'0 0.0
2017-Dec-13 06:30N 40°39' W 074°06'3 5.3
2017-Dec-13 06:00N 40°39' W 074°09'2 4.6
2017-Dec-13 05:30N 40°38' W 074°12'0 0.0
2017-Dec-13 05:00N 40°38' W 074°12'0 0.0
2017-Dec-13 04:30N 40°38' W 074°12'0 0.6
2017-Dec-13 04:00N 40°38' W 074°12'0 0.8
2017-Dec-13 03:30N 40°38' W 074°12'0 0.0
2017-Dec-13 02:59N 40°38' W 074°12'0 0.0
2017-Dec-13 02:30N 40°38' W 074°12'0 0.0
2017-Dec-13 02:00N 40°38' W 074°12'0 0.0
2017-Dec-13 01:30N 40°38' W 074°12'0 0.0
2017-Dec-13 01:00N 40°38' W 074°12'0 0.1
2017-Dec-13 00:30N 40°38' W 074°12'1 1.3
2017-Dec-13 00:00N 40°38' W 074°12'0 0.0
2017-Dec-12 23:29N 40°38' W 074°12'0 0.0
2017-Dec-12 22:58N 40°38' W 074°12'5 7.6
2017-Dec-12 22:22N 40°33' W 074°14'1 3.4
2017-Dec-12 21:59N 40°32' W 074°15'1 2.1
2017-Dec-12 21:21N 40°33' W 074°14'2 4.5
2017-Dec-12 20:49N 40°35' W 074°12'2 6.0
2017-Dec-12 20:30N 40°37' W 074°12'2 4.9
2017-Dec-12 20:00N 40°39' W 074°10'3 6.4
2017-Dec-12 19:30N 40°39' W 074°05'4 8.4
2017-Dec-12 19:00N 40°41' W 074°01'1 2.0
2017-Dec-12 18:30N 40°40' W 074°01'1 1.7
2017-Dec-12 18:00N 40°40' W 074°00'0 0.0
2017-Dec-12 17:30N 40°40' W 074°00'2 4.5
2017-Dec-12 17:00N 40°39' W 074°03'5 9.0
2017-Dec-12 16:30N 40°39' W 074°09'3 5.8
2017-Dec-12 16:00N 40°41' W 074°09'0 0.0
2017-Dec-12 15:30N 40°41' W 074°09'0 0.0
2017-Dec-12 14:59N 40°41' W 074°09'0 0.0
2017-Dec-12 14:30N 40°41' W 074°09'0 0.0
2017-Dec-12 14:00N 40°41' W 074°09'0 0.0
2017-Dec-12 13:30N 40°41' W 074°09'0 0.0
2017-Dec-12 13:00N 40°41' W 074°09'0 0.0
2017-Dec-12 12:30N 40°41' W 074°09'0 0.0
2017-Dec-12 12:00N 40°41' W 074°09'0 0.0
2017-Dec-12 11:29N 40°41' W 074°09'0 0.0
2017-Dec-12 11:00N 40°41' W 074°09'0 0.0
2017-Dec-12 10:30N 40°41' W 074°09'0 0.0
2017-Dec-12 10:00N 40°41' W 074°09'3 5.7
2017-Dec-12 09:30N 40°39' W 074°08'4 8.7
2017-Dec-12 09:00N 40°40' W 074°03'2 4.6
2017-Dec-12 08:30N 40°41' W 074°00'0 0.0
2017-Dec-12 08:00N 40°41' W 074°00'0 1.0
2017-Dec-12 07:30N 40°42' W 074°00'3 6.3
2017-Dec-12 07:00N 40°45' W 073°58'3 6.0
2017-Dec-12 06:30N 40°47' W 073°55'3 6.6
2017-Dec-12 06:00N 40°48' W 073°51'3 6.9
2017-Dec-12 05:30N 40°49' W 073°47'4 8.5
2017-Dec-12 05:00N 40°53' W 073°44'4 0.3
2017-Dec-11 13:56N 40°49' W 073°47'0 1.0
2017-Dec-11 13:29N 40°49' W 073°46'0 0.0
2017-Dec-11 12:57N 40°49' W 073°46'0 0.0
2017-Dec-11 11:08N 40°49' W 073°46'0 0.1
2017-Dec-11 10:46N 40°49' W 073°46'0 0.1
2017-Dec-11 10:19N 40°49' W 073°46'2 5.7
2017-Dec-11 09:58N 40°48' W 073°49'4 7.8
2017-Dec-11 09:30N 40°48' W 073°54'3 6.9
2017-Dec-11 09:00N 40°46' W 073°57'3 5.7
2017-Dec-11 08:30N 40°43' W 073°58'3 5.4
2017-Dec-11 08:00N 40°41' W 074°01'4 7.2
2017-Dec-11 07:30N 40°39' W 074°04'4 7.3
2017-Dec-11 07:00N 40°39' W 074°09'2 4.9
2017-Dec-11 06:30N 40°38' W 074°12'0 0.3
2017-Dec-11 06:00N 40°38' W 074°12'0 0.0
2017-Dec-11 05:30N 40°38' W 074°12'0 0.0
2017-Dec-11 05:00N 40°38' W 074°12'0 0.0
2017-Dec-11 04:30N 40°38' W 074°12'0 0.0
2017-Dec-11 03:59N 40°38' W 074°12'0 0.0
2017-Dec-11 03:30N 40°38' W 074°12'0 0.0
2017-Dec-11 03:00N 40°38' W 074°12'0 0.0
2017-Dec-11 02:30N 40°38' W 074°12'1 2.4
2017-Dec-11 01:59N 40°39' W 074°11'5 9.5
2017-Dec-11 01:30N 40°39' W 074°05'4 7.4
2017-Dec-11 01:00N 40°40' W 074°00'2 3.4
2017-Dec-11 00:30N 40°39' W 074°02'2 4.9
2017-Dec-11 00:00N 40°39' W 074°05'1 1.8
2017-Dec-10 23:30N 40°40' W 074°05'0 0.0
2017-Dec-10 23:00N 40°40' W 074°05'0 0.0
2017-Dec-10 22:30N 40°40' W 074°05'0 0.0
2017-Dec-10 22:00N 40°40' W 074°05'0 0.0
2017-Dec-10 21:30N 40°40' W 074°05'2 3.7
2017-Dec-10 21:01N 40°40' W 074°03'2 4.0
2017-Dec-10 20:30N 40°40' W 074°00'0 0.0
2017-Dec-10 20:00N 40°40' W 074°00'0 0.0
2017-Dec-10 19:30N 40°40' W 074°00'0 0.0
2017-Dec-10 19:00N 40°40' W 074°00'0 0.0
2017-Dec-10 18:30N 40°40' W 074°00'0 0.0
2017-Dec-10 18:00N 40°40' W 074°00'0 0.0
2017-Dec-10 17:30N 40°40' W 074°00'0 0.0
2017-Dec-10 17:00N 40°40' W 074°00'3 6.0
2017-Dec-10 16:30N 40°39' W 074°04'4 8.6
2017-Dec-10 16:00N 40°39' W 074°09'2 4.9
2017-Dec-10 15:30N 40°38' W 074°12'2 3.2
2017-Dec-10 15:00N 40°39' W 074°11'4 8.8
2017-Dec-10 14:30N 40°39' W 074°05'4 8.7
2017-Dec-10 14:00N 40°42' W 074°00'4 8.8
2017-Dec-10 13:30N 40°45' W 073°57'4 8.7
2017-Dec-10 13:00N 40°48' W 073°53'4 8.7
2017-Dec-10 12:30N 40°48' W 073°47'5 8.4
2017-Dec-10 11:58N 40°52' W 073°44'1 0.0
2017-Dec-09 20:51N 40°52' W 073°45'3 7.8
2017-Dec-09 20:28N 40°49' W 073°47'2 5.1
2017-Dec-09 19:59N 40°48' W 073°50'4 7.2
2017-Dec-09 19:30N 40°48' W 073°54'4 7.7
2017-Dec-09 19:00N 40°45' W 073°58'3 6.4
2017-Dec-09 18:30N 40°42' W 073°60'4 7.7
2017-Dec-09 18:00N 40°39' W 074°03'2 4.9
2017-Dec-09 17:30N 40°39' W 074°07'1 1.1
2017-Dec-09 17:00N 40°39' W 074°06'0 0.0
2017-Dec-09 16:30N 40°39' W 074°06'0 0.0
2017-Dec-09 16:00N 40°39' W 074°06'0 0.0
2017-Dec-09 15:30N 40°39' W 074°06'0 0.0
2017-Dec-09 15:00N 40°39' W 074°06'1 1.8
2017-Dec-09 14:30N 40°39' W 074°07'2 4.6
2017-Dec-09 14:00N 40°41' W 074°09'0 0.0
2017-Dec-09 13:30N 40°41' W 074°09'0 0.1
2017-Dec-09 12:59N 40°41' W 074°09'1 2.8
2017-Dec-09 12:30N 40°39' W 074°09'3 5.4
2017-Dec-09 12:00N 40°39' W 074°05'0 0.5
2017-Dec-09 11:30N 40°39' W 074°05'0 0.0
2017-Dec-09 11:00N 40°39' W 074°05'0 0.0
2017-Dec-09 10:30N 40°39' W 074°05'2 3.3
2017-Dec-09 10:00N 40°39' W 074°03'2 3.7
2017-Dec-09 09:30N 40°40' W 074°01'3 5.8
2017-Dec-09 09:00N 40°38' W 074°04'3 5.2
2017-Dec-09 08:30N 40°40' W 074°05'0 0.0
2017-Dec-09 08:00N 40°40' W 074°05'0 0.0
2017-Dec-09 07:30N 40°40' W 074°05'3 5.4
2017-Dec-09 07:00N 40°39' W 074°02'2 3.6
2017-Dec-09 06:30N 40°40' W 074°00'2 3.5
2017-Dec-09 06:00N 40°39' W 074°02'3 6.9
2017-Dec-09 05:30N 40°39' W 074°07'2 3.5
2017-Dec-09 05:00N 40°39' W 074°04'1 1.4
2017-Dec-09 04:30N 40°40' W 074°04'0 0.0
2017-Dec-09 04:00N 40°40' W 074°04'0 0.0
2017-Dec-09 03:30N 40°40' W 074°04'0 0.0
2017-Dec-09 03:00N 40°40' W 074°04'0 0.0
2017-Dec-09 02:30N 40°40' W 074°04'0 0.0
2017-Dec-09 02:00N 40°40' W 074°04'0 0.0
2017-Dec-09 01:30N 40°40' W 074°04'0 0.0
2017-Dec-09 01:00N 40°40' W 074°04'0 0.0
2017-Dec-09 00:30N 40°40' W 074°04'0 0.0
2017-Dec-09 00:00N 40°40' W 074°04'0 0.0
2017-Dec-08 23:30N 40°40' W 074°04'2 5.0
2017-Dec-08 23:00N 40°41' W 074°01'5 9.4
2017-Dec-08 22:30N 40°45' W 073°58'5 9.3
2017-Dec-08 22:00N 40°48' W 073°53'4 7.9
2017-Dec-08 21:30N 40°48' W 073°48'3 6.3
2017-Dec-08 20:58N 40°51' W 073°46'2 0.2
2017-Dec-08 10:11N 40°49' W 073°47'1 3.7
2017-Dec-08 10:00N 40°49' W 073°46'0 0.1
2017-Dec-08 09:23N 40°49' W 073°46'0 0.0
2017-Dec-08 09:00N 40°49' W 073°46'0 0.0
2017-Dec-08 08:29N 40°49' W 073°46'0 0.0
2017-Dec-08 07:46N 40°49' W 073°46'0 0.0
2017-Dec-08 07:28N 40°49' W 073°46'0 0.1
2017-Dec-08 06:58N 40°49' W 073°46'0 0.1
2017-Dec-08 06:17N 40°49' W 073°46'0 0.1
2017-Dec-08 05:59N 40°49' W 073°46'0 0.1
2017-Dec-08 05:23N 40°49' W 073°46'0 0.0
2017-Dec-08 04:59N 40°49' W 073°46'0 0.0
2017-Dec-08 02:19N 40°49' W 073°46'0 0.1
2017-Dec-08 01:49N 40°49' W 073°47'1 2.7
2017-Dec-08 01:27N 40°48' W 073°47'  

Dump ship's entire track history